Date,TemperatureHighF,TemperatureAvgF,TemperatureLowF,DewpointHighF,DewpointAvgF,DewpointLowF,HumidityHigh,HumidityAvg,HumidityLow,PressureMaxIn,PressureMinIn,WindSpeedMaxMPH,WindSpeedAvgMPH,GustSpeedMaxMPH,PrecipitationSumIn
2012-12-1,28,26,24,27,17,9,97,72,48,30.62,30.49,6,4,10,0.00
2012-12-2,46,36,26,45,35,26,100,98,64,30.46,29.98,4,1,16,0.09
2012-12-3,53,46,34,46,42,33,100,89,60,30.27,29.95,8,1,16,0.00
2012-12-4,51,41,32,50,39,32,100,93,65,30.28,29.96,4,0,10,0.00
2012-12-5,52,48,31,51,43,19,99,82,45,30.06,29.76,9,4,18,0.01
2012-12-6,38,32,26,26,20,5,91,63,29,30.27,30.09,5,2,11,0.00
2012-12-7,42,35,26,40,31,13,98,85,53,30.25,30.00,4,2,10,0.04
2012-12-8,40,38,37,40,38,27,100,99,65,30.00,29.83,4,1,7,0.18
2012-12-9,45,40,34,40,36,32,100,86,63,30.27,29.90,7,2,15,0.01
2012-12-10,46,41,38,46,40,29,100,98,70,30.16,29.46,8,2,17,0.41
2012-12-11,44,39,31,42,34,13,100,83,45,30.09,29.50,7,3,14,0.04
2012-12-12,37,30,27,28,24,18,89,76,57,30.36,30.09,4,1,9,0.00
2012-12-13,40,32,26,30,27,25,99,83,57,30.39,30.24,3,1,6,0.00
2012-12-14,44,34,28,29,26,25,91,75,46,30.21,30.00,5,2,10,0.00
2012-12-15,38,34,24,29,23,15,76,66,45,30.32,30.11,5,3,8,0.00
2012-12-16,25,24,22,25,19,10,99,82,55,30.32,30.12,6,4,9,0.00
2012-12-17,33,30,24,33,30,24,100,100,97,30.09,29.84,7,4,12,0.17
2012-12-18,60,43,33,44,38,33,100,87,39,29.79,29.35,11,5,20,1.32
2012-12-19,40,38,34,37,35,24,99,88,52,29.99,29.51,9,4,15,0.04
2012-12-20,39,36,32,35,32,27,100,88,69,30.17,29.99,6,2,10,0.00
2012-12-21,50,43,39,50,39,30,99,86,51,29.95,29.08,16,7,36,0.53
2012-12-22,39,33,27,35,24,6,89,70,36,29.55,29.17,9,4,20,0.00
2012-12-23,37,30,25,26,20,8,79,64,44,29.79,29.55,9,3,20,0.00
2012-12-24,36,31,27,27,21,6,80,67,33,30.03,29.79,8,2,12,0.00
2012-12-25,32,29,24,30,25,18,97,86,72,30.18,29.96,5,2,8,0.00
2012-12-26,36,28,18,34,23,15,95,81,61,30.28,29.96,10,3,24,0.07
2012-12-27,41,34,28,41,25,-28,99,77,6,29.96,29.31,17,10,31,1.84
2012-12-28,33,30,26,29,23,9,92,76,39,29.95,29.55,9,4,16,0.02
2012-12-29,34,28,25,33,26,21,100,89,79,29.95,29.40,9,3,15,0.07
2012-12-30,27,24,18,27,18,1,100,81,38,29.87,29.39,14,7,28,0.00
2012-12-31,33,27,20,26,19,6,84,72,40,29.94,29.70,11,3,21,0.03